メインページ
METAR-TAF:

METAR-TAF

空港 :

サギノー, ミシガン州, アメリカ合衆国

緯度: 43-31-58N, 経度: 084-04-46W, 海抜: 204m

現時点の気象観測

当レポートは1時間7分前の17:53(UTC)に作成
西/南西の風 12kt
気温 33°C
湿度 59%
気圧 1010 hPa
視程: 16.1km
晴天

METAR: KMBS 191753Z 24012KT 10SM CLR 33/24 A2982 RMK AO2 SLP091 60001 T03330239 10333 20267 53012

時間: 15:00 (19:00 UTC)

予報

当レポートは1時間27分前の17:33(UTC)に作成
予報は19日の 18時(UTC)から 20日の 18時(UTC)まで有効
南西の風 14kt、最大21ktの突風を伴う
視程: 10km
高度3000ftの雲は散在している
高度25000ftの千切れ雲あり
19日の 1900時(UTC)から
南西の風 14kt、最大18ktの突風を伴う
視程: 10km
高度3000ftの千切れ雲あり, 積乱雲.
近辺で激しい雷雨
20日の 0000時(UTC)から
南西の風 9kt
視程: 10km
高度3500ftの雲は散在している
高度25000ftの雲は散在している
20日の 0700時(UTC)から
南/南西の風 6kt
視程: 9.7km
高度4000ftの雲は散在している, 積乱雲.
高度25000ftの雲は散在している
靄, 近辺で激しい雷雨
20日の 1000時(UTC)から
南/南西の風 5kt
視程: 9.7km
高度3500ftの雲は散在している
20日の 1400時(UTC)から
南西の風 12kt
視程: 10km
高度4000ftの雲は散在している
高度25000ftの雲は散在している

TAF: KMBS 191733Z 1918/2018 23014G21KT P6SM SCT030 BKN250 FM191900 22014G18KT P6SM VCTS BKN030CB FM200000 22009KT P6SM SCT035 SCT250 FM200700 21006KT 6SM BR VCTS SCT040CB SCT250 FM201000 21005KT 6SM BR SCT035 FM201400 22012KT P6SM SCT040 SCT250

4,000以上の空港の気象観測と天気予報(METAR報とTAF報)

利用可能な観測所は地図上に黄色い丸と赤い丸で示す。

丸の上にカーソルを重ねると観測所名を参照できる。

次にクリックすると気象観測と天気予報を参照できる。

マップの切り替え:黒色「×」印の緑ボタンをクリックして拡大、「-」印の緑ボタンをクリックして縮小、緑色の三角印をクリックして隣りの地図に切り替え


METAR-TAF: